Regal Star — ESCM — position and weather

sailwx.info

Track history (hours):
 
Tides and Currents Weather Stations Pressure Air Temp Water Temp Dewpoint Dewpoint Depression Visibility Wind Speed Wind Dir Waves Ship Positions

Regal Star

Last reported at 2017-Nov-25 01:39 UTC. Time now 2017-Nov-25 02:04 UTC.
Position N 59°29' E 021°53'.

Length 157 m; draft 6.2 m.

Type: Ship (hazmat cat C). MMSI: 276554000.

Date/timePositionNaut miles runAvg speedWind from/ knotsBaromVisibWave heightAir tempDewpointWater temp
2017-Nov-25 01:39N 59°29' E 021°53'215.6
2017-Nov-25 01:30N 59°30' E 021°49'715.4
2017-Nov-25 01:00N 59°32' E 021°34'815.4
2017-Nov-25 00:30N 59°34' E 021°20'815.3
2017-Nov-25 00:00N 59°36' E 021°05'4615.0
2017-Nov-24 20:58N 59°45' E 019°37'715.2
2017-Nov-24 20:29N 59°46' E 019°22'715.3
2017-Nov-24 20:00N 59°43' E 019°08'2 4.4
2017-Nov-24 19:30N 59°43' E 019°04'0 0.0
2017-Nov-24 19:00N 59°43' E 019°04'0 0.0
2017-Nov-24 18:30N 59°43' E 019°04'0 0.0
2017-Nov-24 18:00N 59°43' E 019°04'0 0.0
2017-Nov-24 17:30N 59°43' E 019°04'0 0.0
2017-Nov-24 17:00N 59°43' E 019°04'0 0.0
2017-Nov-24 16:30N 59°43' E 019°04'0 0.0
2017-Nov-24 16:00N 59°43' E 019°04'0 0.0
2017-Nov-24 15:30N 59°43' E 019°04'0 0.0
2017-Nov-24 15:00N 59°43' E 019°04'0 0.0
2017-Nov-24 14:09N 59°43' E 019°04'0 0.0
2017-Nov-24 13:42N 59°43' E 019°04'0 0.0
2017-Nov-24 13:15N 59°43' E 019°04'0 0.0
2017-Nov-24 12:57N 59°43' E 019°04'0 0.0
2017-Nov-24 12:27N 59°43' E 019°04'0 0.0
2017-Nov-24 12:00N 59°43' E 019°04'0 0.0
2017-Nov-24 11:30N 59°43' E 019°04'0 0.0
2017-Nov-24 11:00N 59°43' E 019°04'0 0.0
2017-Nov-24 10:30N 59°43' E 019°04'0 0.0
2017-Nov-24 10:00N 59°43' E 019°04'0 0.0
2017-Nov-24 09:30N 59°43' E 019°04'0 0.0
2017-Nov-24 09:00N 59°43' E 019°04'0 0.0
2017-Nov-24 08:30N 59°43' E 019°04'0 0.0
2017-Nov-24 08:00N 59°43' E 019°04'0 0.0
2017-Nov-24 07:30N 59°43' E 019°04'0 0.0
2017-Nov-24 07:00N 59°43' E 019°04'0 0.0
2017-Nov-24 06:30N 59°43' E 019°04'0 0.0
2017-Nov-24 06:00N 59°43' E 019°04'0 0.5
2017-Nov-24 05:31N 59°43' E 019°04'612.3
2017-Nov-24 05:01N 59°45' E 019°16'815.1
2017-Nov-24 04:31N 59°46' E 019°31'815.4
2017-Nov-24 04:01N 59°43' E 019°46'814.8
2017-Nov-24 03:30N 59°40' E 019°59'714.2
2017-Nov-24 03:00N 59°37' E 020°12'2714.1
2017-Nov-24 01:07N 59°30' E 021°03'214.3
2017-Nov-24 01:00N 59°30' E 021°06'714.1
2017-Nov-24 00:31N 59°29' E 021°19'714.3
2017-Nov-24 00:01N 59°27' E 021°33'714.0
2017-Nov-23 23:31N 59°25' E 021°46'54 3.2
2017-Nov-23 06:41N 59°23' E 023°33'514.7
2017-Nov-23 06:22N 59°23' E 023°24'4713.5
2017-Nov-23 02:52N 59°29' E 021°52'512.8
2017-Nov-23 02:31N 59°30' E 021°43'612.4
2017-Nov-23 02:01N 59°32' E 021°31'612.4
2017-Nov-23 01:30N 59°34' E 021°19'612.4
2017-Nov-23 01:00N 59°35' E 021°08'612.3
2017-Nov-23 00:30N 59°37' E 020°56'4012.7
2017-Nov-22 21:23N 59°45' E 019°39'513.5
2017-Nov-22 21:00N 59°46' E 019°29'714.5
2017-Nov-22 20:30N 59°45' E 019°15'611.4
2017-Nov-22 20:00N 59°43' E 019°04'0 0.0
2017-Nov-22 19:30N 59°43' E 019°04'  
2017-Nov-20 00:30N 59°37' E 021°18'815.2
2017-Nov-20 00:00N 59°35' E 021°33'815.2
2017-Nov-19 23:30N 59°34' E 021°47'1015.2
2017-Nov-19 22:49N 59°33' E 022°08'3615.2
2017-Nov-19 20:29N 59°28' E 023°17'46 5.4
2017-Nov-19 11:55N 59°30' E 021°46'615.8
2017-Nov-19 11:31N 59°32' E 021°34'816.0
2017-Nov-19 11:01N 59°34' E 021°19'815.7
2017-Nov-19 10:30N 59°36' E 021°04'4315.3
2017-Nov-19 07:43N 59°45' E 019°41'315.6
2017-Nov-19 07:31N 59°45' E 019°35'815.2
2017-Nov-19 07:01N 59°45' E 019°20'714.6
2017-Nov-19 06:30N 59°43' E 019°06'1 1.6
2017-Nov-19 05:59N 59°43' E 019°04'0 0.0
2017-Nov-19 05:29N 59°43' E 019°04'2 3.5
2017-Nov-19 05:00N 59°43' E 019°07'815.8
2017-Nov-19 04:31N 59°46' E 019°22'815.5
2017-Nov-19 04:00N 59°45' E 019°37'815.6
2017-Nov-19 03:29N 59°42' E 019°53'3915.1
2017-Nov-19 00:55N 59°30' E 021°05'615.4
2017-Nov-19 00:30N 59°29' E 021°18'815.3
2017-Nov-19 00:00N 59°27' E 021°32'815.2
2017-Nov-18 23:30N 59°25' E 021°47'49 2.6
2017-Nov-18 04:42N 59°23' E 023°24'4714.7
2017-Nov-18 01:30N 59°29' E 021°52'715.1
2017-Nov-18 01:00N 59°31' E 021°38'815.2
2017-Nov-18 00:30N 59°33' E 021°24'815.4
2017-Nov-18 00:00N 59°35' E 021°10'815.2
2017-Nov-17 23:30N 59°37' E 020°55'4015.0
2017-Nov-17 20:51N 59°45' E 019°38'616.2
2017-Nov-17 20:30N 59°46' E 019°27'815.7
2017-Nov-17 20:00N 59°44' E 019°12'4 7.9
2017-Nov-17 19:30N 59°43' E 019°04'0 0.0
2017-Nov-17 19:00N 59°43' E 019°04'0 0.0
2017-Nov-17 18:30N 59°43' E 019°04'0 0.0
2017-Nov-17 18:00N 59°43' E 019°04'0 0.0
2017-Nov-17 17:30N 59°43' E 019°04'0 0.0
2017-Nov-17 17:00N 59°43' E 019°04'0 0.0
2017-Nov-17 16:30N 59°43' E 019°04'0 0.0
2017-Nov-17 16:00N 59°43' E 019°04'0 0.0
2017-Nov-17 12:18N 59°43' E 019°04'0 0.0
2017-Nov-17 12:00N 59°43' E 019°04'0 0.0
2017-Nov-17 11:30N 59°43' E 019°04'0 0.0
2017-Nov-17 11:00N 59°43' E 019°04'0 0.0
2017-Nov-17 10:27N 59°43' E 019°04'0 0.0
2017-Nov-17 10:00N 59°43' E 019°04'0 0.0
2017-Nov-17 09:30N 59°43' E 019°04'0 0.0
2017-Nov-17 09:00N 59°43' E 019°04'0 0.0
2017-Nov-17 08:30N 59°43' E 019°04'0 0.0
2017-Nov-17 08:00N 59°43' E 019°04'0 0.0
2017-Nov-17 07:30N 59°43' E 019°04'0 0.0
2017-Nov-17 07:00N 59°43' E 019°04'0 0.0
2017-Nov-17 06:30N 59°43' E 019°04'0 0.0
2017-Nov-17 06:00N 59°43' E 019°04'0 0.4
2017-Nov-17 05:31N 59°43' E 019°04'612.6
2017-Nov-17 05:00N 59°45' E 019°16'714.1
2017-Nov-17 04:30N 59°46' E 019°30'714.0
2017-Nov-17 04:00N 59°44' E 019°44'4313.6
2017-Nov-17 00:52N 59°30' E 021°04'514.5
2017-Nov-17 00:31N 59°29' E 021°14'714.6
2017-Nov-17 00:00N 59°27' E 021°28'714.8
2017-Nov-16 23:31N 59°26' E 021°42'56 3.0
2017-Nov-16 05:04N 59°23' E 023°32'415.4
2017-Nov-16 04:48N 59°23' E 023°23'4815.2
2017-Nov-16 01:38N 59°29' E 021°49'215.7
2017-Nov-16 01:30N 59°30' E 021°45'815.9
2017-Nov-16 01:00N 59°32' E 021°30'816.0
2017-Nov-16 00:30N 59°34' E 021°15'815.9
2017-Nov-16 00:00N 59°37' E 021°00'4215.5
2017-Nov-15 21:18N 59°45' E 019°39'516.2
2017-Nov-15 21:00N 59°46' E 019°30'815.7
2017-Nov-15 20:30N 59°44' E 019°14'510.0
2017-Nov-15 19:59N 59°43' E 019°04'0 0.0
2017-Nov-15 19:29N 59°43' E 019°04'0 0.0
2017-Nov-15 18:59N 59°43' E 019°04'0 0.0
2017-Nov-15 18:29N 59°43' E 019°04'0 0.0
2017-Nov-15 17:59N 59°43' E 019°04'0 0.0
2017-Nov-15 17:29N 59°43' E 019°04'0 0.0
2017-Nov-15 16:59N 59°43' E 019°04'0 0.0
2017-Nov-15 16:29N 59°43' E 019°04'0 0.0
2017-Nov-15 15:59N 59°43' E 019°04'0 0.0
2017-Nov-15 15:29N 59°43' E 019°04'0 0.0
2017-Nov-15 09:38N 59°43' E 019°04'0 0.0
2017-Nov-15 09:29N 59°43' E 019°04'0 0.0
2017-Nov-15 08:59N 59°43' E 019°04'0 0.0
2017-Nov-15 08:26N 59°43' E 019°04'0 0.0
2017-Nov-15 07:59N 59°43' E 019°04'0 0.0
2017-Nov-15 06:05N 59°43' E 019°04'0 0.0
2017-Nov-15 05:47N 59°43' E 019°04'0 0.3
2017-Nov-15 05:30N 59°43' E 019°04'611.8
2017-Nov-15 05:00N 59°45' E 019°15'714.9
2017-Nov-15 04:30N 59°46' E 019°30'815.1
2017-Nov-15 04:00N 59°44' E 019°44'814.7
2017-Nov-15 03:29N 59°40' E 019°58'  
Track history (hours):
 
Tides and Currents Weather Stations Pressure Air Temp Water Temp Dewpoint Dewpoint Depression Visibility Wind Speed Wind Dir Waves Ship Positions

Regal Star

Last reported at 2017-Nov-25 01:39 UTC. Time now 2017-Nov-25 02:04 UTC.
Position N 59°29' E 021°53'.

Length 157 m; draft 6.2 m.

Type: Ship (hazmat cat C). MMSI: 276554000.

Date/timePositionNaut miles runAvg speedWind from/ knotsBaromVisibWave heightAir tempDewpointWater temp
2017-Nov-25 01:39N 59°29' E 021°53'215.6
2017-Nov-25 01:30N 59°30' E 021°49'715.4
2017-Nov-25 01:00N 59°32' E 021°34'815.4
2017-Nov-25 00:30N 59°34' E 021°20'815.3
2017-Nov-25 00:00N 59°36' E 021°05'4615.0
2017-Nov-24 20:58N 59°45' E 019°37'715.2
2017-Nov-24 20:29N 59°46' E 019°22'715.3
2017-Nov-24 20:00N 59°43' E 019°08'2 4.4
2017-Nov-24 19:30N 59°43' E 019°04'0 0.0
2017-Nov-24 19:00N 59°43' E 019°04'0 0.0
2017-Nov-24 18:30N 59°43' E 019°04'0 0.0
2017-Nov-24 18:00N 59°43' E 019°04'0 0.0
2017-Nov-24 17:30N 59°43' E 019°04'0 0.0
2017-Nov-24 17:00N 59°43' E 019°04'0 0.0
2017-Nov-24 16:30N 59°43' E 019°04'0 0.0
2017-Nov-24 16:00N 59°43' E 019°04'0 0.0
2017-Nov-24 15:30N 59°43' E 019°04'0 0.0
2017-Nov-24 15:00N 59°43' E 019°04'0 0.0
2017-Nov-24 14:09N 59°43' E 019°04'0 0.0
2017-Nov-24 13:42N 59°43' E 019°04'0 0.0
2017-Nov-24 13:15N 59°43' E 019°04'0 0.0
2017-Nov-24 12:57N 59°43' E 019°04'0 0.0
2017-Nov-24 12:27N 59°43' E 019°04'0 0.0
2017-Nov-24 12:00N 59°43' E 019°04'0 0.0
2017-Nov-24 11:30N 59°43' E 019°04'0 0.0
2017-Nov-24 11:00N 59°43' E 019°04'0 0.0
2017-Nov-24 10:30N 59°43' E 019°04'0 0.0
2017-Nov-24 10:00N 59°43' E 019°04'0 0.0
2017-Nov-24 09:30N 59°43' E 019°04'0 0.0
2017-Nov-24 09:00N 59°43' E 019°04'0 0.0
2017-Nov-24 08:30N 59°43' E 019°04'0 0.0
2017-Nov-24 08:00N 59°43' E 019°04'0 0.0
2017-Nov-24 07:30N 59°43' E 019°04'0 0.0
2017-Nov-24 07:00N 59°43' E 019°04'0 0.0
2017-Nov-24 06:30N 59°43' E 019°04'0 0.0
2017-Nov-24 06:00N 59°43' E 019°04'0 0.5
2017-Nov-24 05:31N 59°43' E 019°04'612.3
2017-Nov-24 05:01N 59°45' E 019°16'815.1
2017-Nov-24 04:31N 59°46' E 019°31'815.4
2017-Nov-24 04:01N 59°43' E 019°46'814.8
2017-Nov-24 03:30N 59°40' E 019°59'714.2
2017-Nov-24 03:00N 59°37' E 020°12'2714.1
2017-Nov-24 01:07N 59°30' E 021°03'214.3
2017-Nov-24 01:00N 59°30' E 021°06'714.1
2017-Nov-24 00:31N 59°29' E 021°19'714.3
2017-Nov-24 00:01N 59°27' E 021°33'714.0
2017-Nov-23 23:31N 59°25' E 021°46'54 3.2
2017-Nov-23 06:41N 59°23' E 023°33'514.7
2017-Nov-23 06:22N 59°23' E 023°24'4713.5
2017-Nov-23 02:52N 59°29' E 021°52'512.8
2017-Nov-23 02:31N 59°30' E 021°43'612.4
2017-Nov-23 02:01N 59°32' E 021°31'612.4
2017-Nov-23 01:30N 59°34' E 021°19'612.4
2017-Nov-23 01:00N 59°35' E 021°08'612.3
2017-Nov-23 00:30N 59°37' E 020°56'4012.7
2017-Nov-22 21:23N 59°45' E 019°39'513.5
2017-Nov-22 21:00N 59°46' E 019°29'714.5
2017-Nov-22 20:30N 59°45' E 019°15'611.4
2017-Nov-22 20:00N 59°43' E 019°04'0 0.0
2017-Nov-22 19:30N 59°43' E 019°04'  
2017-Nov-20 00:30N 59°37' E 021°18'815.2
2017-Nov-20 00:00N 59°35' E 021°33'815.2
2017-Nov-19 23:30N 59°34' E 021°47'1015.2
2017-Nov-19 22:49N 59°33' E 022°08'3615.2
2017-Nov-19 20:29N 59°28' E 023°17'46 5.4
2017-Nov-19 11:55N 59°30' E 021°46'615.8
2017-Nov-19 11:31N 59°32' E 021°34'816.0
2017-Nov-19 11:01N 59°34' E 021°19'815.7
2017-Nov-19 10:30N 59°36' E 021°04'4315.3
2017-Nov-19 07:43N 59°45' E 019°41'315.6
2017-Nov-19 07:31N 59°45' E 019°35'815.2
2017-Nov-19 07:01N 59°45' E 019°20'714.6
2017-Nov-19 06:30N 59°43' E 019°06'1 1.6
2017-Nov-19 05:59N 59°43' E 019°04'0 0.0
2017-Nov-19 05:29N 59°43' E 019°04'2 3.5
2017-Nov-19 05:00N 59°43' E 019°07'815.8
2017-Nov-19 04:31N 59°46' E 019°22'815.5
2017-Nov-19 04:00N 59°45' E 019°37'815.6
2017-Nov-19 03:29N 59°42' E 019°53'3915.1
2017-Nov-19 00:55N 59°30' E 021°05'615.4
2017-Nov-19 00:30N 59°29' E 021°18'815.3
2017-Nov-19 00:00N 59°27' E 021°32'815.2
2017-Nov-18 23:30N 59°25' E 021°47'49 2.6
2017-Nov-18 04:42N 59°23' E 023°24'4714.7
2017-Nov-18 01:30N 59°29' E 021°52'715.1
2017-Nov-18 01:00N 59°31' E 021°38'815.2
2017-Nov-18 00:30N 59°33' E 021°24'815.4
2017-Nov-18 00:00N 59°35' E 021°10'815.2
2017-Nov-17 23:30N 59°37' E 020°55'4015.0
2017-Nov-17 20:51N 59°45' E 019°38'616.2
2017-Nov-17 20:30N 59°46' E 019°27'815.7
2017-Nov-17 20:00N 59°44' E 019°12'4 7.9
2017-Nov-17 19:30N 59°43' E 019°04'0 0.0
2017-Nov-17 19:00N 59°43' E 019°04'0 0.0
2017-Nov-17 18:30N 59°43' E 019°04'0 0.0
2017-Nov-17 18:00N 59°43' E 019°04'0 0.0
2017-Nov-17 17:30N 59°43' E 019°04'0 0.0
2017-Nov-17 17:00N 59°43' E 019°04'0 0.0
2017-Nov-17 16:30N 59°43' E 019°04'0 0.0
2017-Nov-17 16:00N 59°43' E 019°04'0 0.0
2017-Nov-17 12:18N 59°43' E 019°04'0 0.0
2017-Nov-17 12:00N 59°43' E 019°04'0 0.0
2017-Nov-17 11:30N 59°43' E 019°04'0 0.0
2017-Nov-17 11:00N 59°43' E 019°04'0 0.0
2017-Nov-17 10:27N 59°43' E 019°04'0 0.0
2017-Nov-17 10:00N 59°43' E 019°04'0 0.0
2017-Nov-17 09:30N 59°43' E 019°04'0 0.0
2017-Nov-17 09:00N 59°43' E 019°04'0 0.0
2017-Nov-17 08:30N 59°43' E 019°04'0 0.0
2017-Nov-17 08:00N 59°43' E 019°04'0 0.0
2017-Nov-17 07:30N 59°43' E 019°04'0 0.0
2017-Nov-17 07:00N 59°43' E 019°04'0 0.0
2017-Nov-17 06:30N 59°43' E 019°04'0 0.0
2017-Nov-17 06:00N 59°43' E 019°04'0 0.4
2017-Nov-17 05:31N 59°43' E 019°04'612.6
2017-Nov-17 05:00N 59°45' E 019°16'714.1
2017-Nov-17 04:30N 59°46' E 019°30'714.0
2017-Nov-17 04:00N 59°44' E 019°44'4313.6
2017-Nov-17 00:52N 59°30' E 021°04'514.5
2017-Nov-17 00:31N 59°29' E 021°14'714.6
2017-Nov-17 00:00N 59°27' E 021°28'714.8
2017-Nov-16 23:31N 59°26' E 021°42'56 3.0
2017-Nov-16 05:04N 59°23' E 023°32'415.4
2017-Nov-16 04:48N 59°23' E 023°23'4815.2
2017-Nov-16 01:38N 59°29' E 021°49'215.7
2017-Nov-16 01:30N 59°30' E 021°45'815.9
2017-Nov-16 01:00N 59°32' E 021°30'816.0
2017-Nov-16 00:30N 59°34' E 021°15'815.9
2017-Nov-16 00:00N 59°37' E 021°00'4215.5
2017-Nov-15 21:18N 59°45' E 019°39'516.2
2017-Nov-15 21:00N 59°46' E 019°30'815.7
2017-Nov-15 20:30N 59°44' E 019°14'510.0
2017-Nov-15 19:59N 59°43' E 019°04'0 0.0
2017-Nov-15 19:29N 59°43' E 019°04'0 0.0
2017-Nov-15 18:59N 59°43' E 019°04'0 0.0
2017-Nov-15 18:29N 59°43' E 019°04'0 0.0
2017-Nov-15 17:59N 59°43' E 019°04'0 0.0
2017-Nov-15 17:29N 59°43' E 019°04'0 0.0
2017-Nov-15 16:59N 59°43' E 019°04'0 0.0
2017-Nov-15 16:29N 59°43' E 019°04'0 0.0
2017-Nov-15 15:59N 59°43' E 019°04'0 0.0
2017-Nov-15 15:29N 59°43' E 019°04'0 0.0
2017-Nov-15 09:38N 59°43' E 019°04'0 0.0
2017-Nov-15 09:29N 59°43' E 019°04'0 0.0
2017-Nov-15 08:59N 59°43' E 019°04'0 0.0
2017-Nov-15 08:26N 59°43' E 019°04'0 0.0
2017-Nov-15 07:59N 59°43' E 019°04'0 0.0
2017-Nov-15 06:05N 59°43' E 019°04'0 0.0
2017-Nov-15 05:47N 59°43' E 019°04'0 0.3
2017-Nov-15 05:30N 59°43' E 019°04'611.8
2017-Nov-15 05:00N 59°45' E 019°15'714.9
2017-Nov-15 04:30N 59°46' E 019°30'815.1
2017-Nov-15 04:00N 59°44' E 019°44'814.7
2017-Nov-15 03:29N 59°40' E 019°58'  

Dump ship's entire track history